Observation data for Pampa on 11/14/2019      Previous  Date  Next       Current Mesonet Observations  Soil Data  Daily Summary Page  Observations in Plain Language
KPMS 140600Z 02006KT M01/M05 A3015 RMK A01 T10071054  RH  071%=      5-min Rain = 0
KPMS 140605Z 01005KT M01/M05 A3015 RMK A01 T10071054  RH  071%=      5-min Rain = 0
KPMS 140610Z 01006KT M01/M05 A3015 RMK A01 T10081054  RH  071%=      5-min Rain = 0
KPMS 140615Z 02006KT M01/M06 A3016 RMK A01 T10101055  RH  072%=      5-min Rain = 0
KPMS 140620Z 02007KT M01/M06 A3016 RMK A01 T10141057  RH  073%=      5-min Rain = 0
KPMS 140625Z 02007KT M02/M06 A3016 RMK A01 T10161056  RH  074%=      5-min Rain = 0
KPMS 140630Z 02007KT M02/M06 A3016 RMK A01 T10171055  RH  075%=      5-min Rain = 0
KPMS 140635Z 02006KT M02/M05 A3016 RMK A01 T10161054  RH  075%=      5-min Rain = 0
KPMS 140640Z 01006KT M01/M05 A3016 RMK A01 T10141054  RH  074%=      5-min Rain = 0
KPMS 140645Z 01007KT M02/M06 A3016 RMK A01 T10151055  RH  074%=      5-min Rain = 0
KPMS 140650Z 01005KT M02/M05 A3016 RMK A01 T10171054  RH  076%=      5-min Rain = 0
KPMS 140655Z 00005KT M02/M05 A3017 RMK A01 T10161053  RH  076%=      5-min Rain = 0
KPMS 140700Z 00005KT M01/M05 A3017 RMK A01 T10131051  RH  075%=      5-min Rain = 0
KPMS 140705Z 01006KT M01/M05 A3017 RMK A01 T10091050  RH  074%=      5-min Rain = 0
KPMS 140710Z 02007KT M01/M05 A3017 RMK A01 T10081051  RH  073%=      5-min Rain = 0
KPMS 140715Z 01007KT M01/M05 A3017 RMK A01 T10061050  RH  072%=      5-min Rain = 0
KPMS 140720Z 01007KT M01/M05 A3017 RMK A01 T10071050  RH  073%=      5-min Rain = 0
KPMS 140725Z 01006KT M01/M05 A3018 RMK A01 T10071049  RH  074%=      5-min Rain = 0
KPMS 140730Z 01005KT M01/M05 A3018 RMK A01 T10051048  RH  073%=      5-min Rain = 0
KPMS 140735Z 00005KT M00/M05 A3018 RMK A01 T10031048  RH  072%=      5-min Rain = 0
KPMS 140740Z 36006KT M00/M05 A3018 RMK A01 T10041048  RH  072%=      5-min Rain = 0
KPMS 140745Z 36005KT M00/M05 A3019 RMK A01 T10021048  RH  072%=      5-min Rain = 0
KPMS 140750Z 36006KT M00/M05 A3019 RMK A01 T10021048  RH  071%=      5-min Rain = 0
KPMS 140755Z 36007KT M00/M05 A3019 RMK A01 T10021048  RH  072%=      5-min Rain = 0
KPMS 140800Z 01007KT 00/05 A3019 RMK A01 T00000-46  RH  072%=      5-min Rain = 0
KPMS 140805Z 01008KT 00/05 A3019 RMK A01 T00000-45  RH  072%=      5-min Rain = 0
KPMS 140810Z 01008KT 00/04 A302 RMK A01 T00-00-44  RH  073%=      5-min Rain = 0
KPMS 140815Z 01007KT 00/04 A302 RMK A01 T00000-43  RH  073%=      5-min Rain = 0
KPMS 140820Z 01006KT 00/M04 A302 RMK A01 T00021043  RH  072%=      5-min Rain = 0
KPMS 140825Z 01006KT 00/M04 A302 RMK A01 T00021043  RH  072%=      5-min Rain = 0
KPMS 140830Z 01007KT 00/M04 A302 RMK A01 T00031042  RH  072%=      5-min Rain = 0
KPMS 140835Z 02007KT 00/M04 A302 RMK A01 T00031041  RH  073%=      5-min Rain = 0
KPMS 140840Z 02008KT 00/M04 A302 RMK A01 T00041040  RH  073%=      5-min Rain = 0
KPMS 140845Z 02007KT 01/M04 A302 RMK A01 T00051040  RH  072%=      5-min Rain = 0
KPMS 140850Z 03006KT 00/M04 A302 RMK A01 T00041043  RH  071%=      5-min Rain = 0
KPMS 140855Z 02005KT 00/M05 A302 RMK A01 T00011046  RH  071%=      5-min Rain = 0
KPMS 140900Z 01004KT M00/M05 A3021 RMK A01 T10031047  RH  072%=      5-min Rain = 0
KPMS 140905Z 01006KT M00/M05 A3021 RMK A01 T10031047  RH  072%=      5-min Rain = 0
KPMS 140910Z 01006KT 00/05 A302 RMK A01 T00-00-46  RH  072%=      5-min Rain = 0
KPMS 140915Z 01006KT M00/M05 A3021 RMK A01 T10011046  RH  072%=      5-min Rain = 0
KPMS 140920Z 01006KT 00/04 A3021 RMK A01 T00-00-44  RH  073%=      5-min Rain = 0
KPMS 140925Z 35008KT 00/04 A3021 RMK A01 T00000-44  RH  072%=      5-min Rain = 0
KPMS 140930Z 35008KT M00/M05 A3021 RMK A01 T10021045  RH  074%=      5-min Rain = 0
KPMS 140935Z 36009KT M00/M04 A3021 RMK A01 T10021044  RH  074%=      5-min Rain = 0
KPMS 140940Z 36008KT M00/M04 A3021 RMK A01 T10021044  RH  074%=      5-min Rain = 0
KPMS 140945Z 00008KT M00/M04 A3021 RMK A01 T10021042  RH  074%=      5-min Rain = 0
KPMS 140950Z 00009KT 00/M04 A3021 RMK A01 T00031039  RH  074%=      5-min Rain = 0
KPMS 140955Z 00009KT 00/M04 A3021 RMK A01 T00041039  RH  074%=      5-min Rain = 0
KPMS 141000Z 00009KT 01/M04 A3021 RMK A01 T00061038  RH  073%=      5-min Rain = 0
KPMS 141005Z 00008KT 01/M04 A3021 RMK A01 T00051038  RH  073%=      5-min Rain = 0
KPMS 141010Z 01007KT 00/M04 A3022 RMK A01 T00031038  RH  074%=      5-min Rain = 0
KPMS 141015Z 01007KT 00/M04 A3022 RMK A01 T00021038  RH  075%=      5-min Rain = 0
KPMS 141020Z 01006KT 00/M04 A3023 RMK A01 T00021037  RH  076%=      5-min Rain = 0
KPMS 141025Z 01006KT 00/04 A3023 RMK A01 T00000-37  RH  076%=      5-min Rain = 0
KPMS 141030Z 01004KT M00/M04 A3023 RMK A01 T10021039  RH  077%=      5-min Rain = 0
KPMS 141035Z 01004KT M00/M04 A3023 RMK A01 T10041040  RH  077%=      5-min Rain = 0
KPMS 141040Z 00004KT M01/M04 A3024 RMK A01 T10051040  RH  078%=      5-min Rain = 0
KPMS 141045Z 02003KT M01/M04 A3023 RMK A01 T10081042  RH  078%=      5-min Rain = 0
KPMS 141050Z 02004KT M01/M04 A3024 RMK A01 T10101043  RH  079%=      5-min Rain = 0
KPMS 141055Z 03004KT M01/M04 A3024 RMK A01 T10111044  RH  079%=      5-min Rain = 0
KPMS 141100Z 02005KT M02/M05 A3024 RMK A01 T10151046  RH  080%=      5-min Rain = 0
KPMS 141105Z 05003KT M02/M05 A3024 RMK A01 T10181047  RH  081%=      5-min Rain = 0
KPMS 141110Z 06002KT M02/M05 A3025 RMK A01 T10201047  RH  082%=      5-min Rain = 0
KPMS 141115Z 03002KT M02/M04 A3025 RMK A01 T10181044  RH  083%=      5-min Rain = 0
KPMS 141120Z 02002KT M02/M04 A3025 RMK A01 T10161042  RH  083%=      5-min Rain = 0
KPMS 141125Z 02001KT M02/M04 A3025 RMK A01 T10161044  RH  082%=      5-min Rain = 0
KPMS 141130Z 36001KT M02/M04 A3025 RMK A01 T10161043  RH  082%=      5-min Rain = 0
KPMS 141135Z 33002KT M02/M04 A3026 RMK A01 T10151042  RH  082%=      5-min Rain = 0
KPMS 141140Z 32002KT M01/M04 A3026 RMK A01 T10121042  RH  081%=      5-min Rain = 0
KPMS 141145Z 32001KT M01/M04 A3026 RMK A01 T10121042  RH  081%=      5-min Rain = 0
KPMS 141150Z 32001KT M01/M04 A3026 RMK A01 T10121041  RH  081%=      5-min Rain = 0
KPMS 141155Z 33002KT M01/M04 A3026 RMK A01 T10131042  RH  081%=      5-min Rain = 0
KPMS 141200Z 33002KT M02/M05 A3026 RMK A01 T10181047  RH  081%=      5-min Rain = 0
KPMS 141205Z 33002KT M02/M04 A3027 RMK A01 T10181042  RH  084%=      5-min Rain = 0
KPMS 141210Z 31002KT M02/M04 A3027 RMK A01 T10161039  RH  084%=      5-min Rain = 0
KPMS 141215Z 31002KT M01/M04 A3027 RMK A01 T10141039  RH  084%=      5-min Rain = 0
KPMS 141220Z 32002KT M02/M04 A3027 RMK A01 T10151040  RH  084%=      5-min Rain = 0
KPMS 141225Z 33003KT M02/M04 A3027 RMK A01 T10191043  RH  084%=      5-min Rain = 0
KPMS 141230Z 34003KT M02/M05 A3028 RMK A01 T10221045  RH  085%=      5-min Rain = 0
KPMS 141235Z 35004KT M02/M04 A3028 RMK A01 T10231044  RH  086%=      5-min Rain = 0
KPMS 141240Z 32003KT M02/M04 A3029 RMK A01 T10231044  RH  086%=      5-min Rain = 0
KPMS 141245Z 31003KT M02/M04 A3029 RMK A01 T10201040  RH  087%=      5-min Rain = 0
KPMS 141250Z 30003KT M02/M04 A3029 RMK A01 T10161036  RH  086%=      5-min Rain = 0
KPMS 141255Z 32003KT M01/M04 A3029 RMK A01 T10141037  RH  085%=      5-min Rain = 0
KPMS 141300Z 32003KT M02/M04 A3029 RMK A01 T10151039  RH  084%=      5-min Rain = 0
KPMS 141305Z 32003KT M02/M04 A303 RMK A01 T10181042  RH  085%=      5-min Rain = 0
KPMS 141310Z 32003KT M02/M04 A303 RMK A01 T10191041  RH  085%=      5-min Rain = 0
KPMS 141315Z 33002KT M02/M04 A303 RMK A01 T10211043  RH  085%=      5-min Rain = 0
KPMS 141320Z 34003KT M02/M05 A303 RMK A01 T10241046  RH  086%=      5-min Rain = 0
KPMS 141325Z 34004KT M03/M05 A303 RMK A01 T10281049  RH  086%=      5-min Rain = 0
KPMS 141330Z 34005KT M03/M05 A3031 RMK A01 T10311049  RH  088%=      5-min Rain = 0
KPMS 141335Z 34006KT M03/M04 A3031 RMK A01 T10271042  RH  089%=      5-min Rain = 0
KPMS 141340Z 33007KT M02/M04 A3031 RMK A01 T10211037  RH  089%=      5-min Rain = 0
KPMS 141345Z 34007KT M02/M04 A3031 RMK A01 T10171035  RH  089%=      5-min Rain = 0
KPMS 141350Z 34006KT M02/M03 A3032 RMK A01 T10151033  RH  088%=      5-min Rain = 0
KPMS 141355Z 33006KT M01/M03 A3032 RMK A01 T10141032  RH  088%=      5-min Rain = 0
KPMS 141400Z 34006KT M01/M03 A3032 RMK A01 T10141032  RH  088%=      5-min Rain = 0
KPMS 141405Z 34005KT M01/M03 A3033 RMK A01 T10111030  RH  087%=      5-min Rain = 0
KPMS 141410Z 33005KT M01/M03 A3033 RMK A01 T10081029  RH  086%=      5-min Rain = 0
KPMS 141415Z 34004KT M01/M03 A3033 RMK A01 T10061028  RH  086%=      5-min Rain = 0
KPMS 141420Z 33003KT M00/M03 A3033 RMK A01 T10021025  RH  085%=      5-min Rain = 0
KPMS 141425Z 34003KT 00/M02 A3034 RMK A01 T00011023  RH  085%=      5-min Rain = 0
KPMS 141430Z 34005KT 01/M02 A3034 RMK A01 T00071019  RH  084%=      5-min Rain = 0
KPMS 141435Z 35005KT 01/M02 A3035 RMK A01 T00121016  RH  082%=      5-min Rain = 0
KPMS 141440Z 35005KT 02/M02 A3035 RMK A01 T00151015  RH  081%=      5-min Rain = 0
KPMS 141445Z 35005KT 02/M01 A3036 RMK A01 T00171014  RH  080%=      5-min Rain = 0
KPMS 141450Z 35005KT 02/M01 A3036 RMK A01 T00191014  RH  079%=      5-min Rain = 0
KPMS 141455Z 34005KT 02/M01 A3036 RMK A01 T00221013  RH  078%=      5-min Rain = 0
KPMS 141500Z 35005KT 02/M01 A3036 RMK A01 T00241012  RH  077%=      5-min Rain = 0
KPMS 141505Z 34004KT 03/M01 A3037 RMK A01 T00271011  RH  077%=      5-min Rain = 0
KPMS 141510Z 34006KT 03/M01 A3037 RMK A01 T00291011  RH  076%=      5-min Rain = 0
KPMS 141515Z 35006KT 03/M01 A3037 RMK A01 T00331009  RH  074%=      5-min Rain = 0
KPMS 141520Z 36006KT 04/M01 A3037 RMK A01 T00371009  RH  073%=      5-min Rain = 0
KPMS 141525Z 00006KT 04/M01 A3037 RMK A01 T00391009  RH  072%=      5-min Rain = 0
KPMS 141530Z 01006KT 04/M01 A3037 RMK A01 T00421008  RH  070%=      5-min Rain = 0
KPMS 141535Z 01005KT 05/M01 A3037 RMK A01 T00461007  RH  069%=      5-min Rain = 0
KPMS 141540Z 01006KT 05/M01 A3038 RMK A01 T00521006  RH  067%=      5-min Rain = 0
KPMS 141545Z 36007KT 05/M01 A3038 RMK A01 T00531007  RH  066%=      5-min Rain = 0
KPMS 141550Z 02008KT 06/M01 A3038 RMK A01 T00561006  RH  065%=      5-min Rain = 0
KPMS 141555Z 01006KT 06/M00 A3038 RMK A01 T00611004  RH  063%=      5-min Rain = 0
KPMS 141600Z 01008KT 07/M00 A3038 RMK A01 T00651004  RH  062%=      5-min Rain = 0
KPMS 141605Z 02010KT 07/M01 A3038 RMK A01 T00671006  RH  060%=      5-min Rain = 0
KPMS 141610Z 02009KT 07/M01 A3039 RMK A01 T00691006  RH  060%=      5-min Rain = 0
KPMS 141615Z 02010KT 07/M01 A3039 RMK A01 T00711005  RH  059%=      5-min Rain = 0
KPMS 141620Z 03009KT 07/M01 A3039 RMK A01 T00691008  RH  058%=      5-min Rain = 0
KPMS 141625Z 03009G14KT 07/M01 A3039 RMK A01 T00721006  RH  058%=      5-min Rain = 0
KPMS 141630Z 02008KT 07/M01 A3039 RMK A01 T00731006  RH  058%=      5-min Rain = 0
KPMS 141635Z 03010KT 08/M01 A3039 RMK A01 T00761006  RH  057%=      5-min Rain = 0
KPMS 141640Z 03009KT 07/M01 A3039 RMK A01 T00741008  RH  057%=      5-min Rain = 0
KPMS 141645Z 03008KT 08/M01 A3039 RMK A01 T00761007  RH  056%=      5-min Rain = 0
KPMS 141650Z 03008KT 08/M01 A3039 RMK A01 T00771007  RH  056%=      5-min Rain = 0
KPMS 141655Z 02008KT 08/M01 A3039 RMK A01 T00781008  RH  055%=      5-min Rain = 0
KPMS 141700Z 02008KT 08/M01 A3039 RMK A01 T00791007  RH  055%=      5-min Rain = 0
KPMS 141705Z 01008KT 08/M01 A3039 RMK A01 T00801008  RH  055%=      5-min Rain = 0
KPMS 141710Z 02008G13KT 08/M01 A304 RMK A01 T00811008  RH  054%=      5-min Rain = 0
KPMS 141715Z 01008KT 08/M01 A3039 RMK A01 T00811009  RH  054%=      5-min Rain = 0
KPMS 141720Z 01007KT 08/M01 A3039 RMK A01 T00821008  RH  054%=      5-min Rain = 0
KPMS 141725Z 01008KT 09/M01 A3039 RMK A01 T00851009  RH  052%=      5-min Rain = 0
KPMS 141730Z 01009KT 08/M01 A3039 RMK A01 T00841010  RH  052%=      5-min Rain = 0
KPMS 141735Z 01009G14KT 09/M01 A3039 RMK A01 T00871009  RH  051%=      5-min Rain = 0
KPMS 141740Z 00008KT 09/M01 A304 RMK A01 T00891009  RH  051%=      5-min Rain = 0
KPMS 141745Z 00010G15KT 09/M01 A3039 RMK A01 T00911009  RH  050%=      5-min Rain = 0
KPMS 141750Z 01009KT 09/M01 A3039 RMK A01 T00911009  RH  050%=      5-min Rain = 0
KPMS 141755Z 02009KT 09/M01 A3039 RMK A01 T00901009  RH  050%=      5-min Rain = 0
KPMS 141800Z 01009KT 09/M01 A3039 RMK A01 T00941008  RH  049%=      5-min Rain = 0
KPMS 141805Z 00009KT 09/M01 A3039 RMK A01 T00911009  RH  050%=      5-min Rain = 0
KPMS 141810Z 02008KT 09/M01 A3039 RMK A01 T00941009  RH  049%=      5-min Rain = 0
KPMS 141815Z 02008KT 09/M01 A3039 RMK A01 T00931009  RH  050%=      5-min Rain = 0
KPMS 141820Z 02007KT 10/M01 A3039 RMK A01 T00971007  RH  049%=      5-min Rain = 0
KPMS 141825Z 02007KT 10/M01 A3038 RMK A01 T00981007  RH  048%=      5-min Rain = 0
KPMS 141830Z 02006KT 10/M01 A3038 RMK A01 T00981007  RH  048%=      5-min Rain = 0
KPMS 141835Z 02009KT 10/M01 A3038 RMK A01 T00971008  RH  048%=      5-min Rain = 0
KPMS 141840Z 04008KT 10/M01 A3038 RMK A01 T01021007  RH  047%=      5-min Rain = 0
KPMS 141845Z 01007G12KT 10/M01 A3038 RMK A01 T01001007  RH  048%=      5-min Rain = 0
KPMS 141850Z 03007KT 10/M01 A3037 RMK A01 T01031008  RH  046%=      5-min Rain = 0
KPMS 141855Z 04007G12KT 10/M01 A3037 RMK A01 T01001008  RH  047%=      5-min Rain = 0
KPMS 141900Z 05008KT 11/M01 A3037 RMK A01 T01051009  RH  046%=      5-min Rain = 0
KPMS 141905Z 04009KT 10/M01 A3037 RMK A01 T01011009  RH  047%=      5-min Rain = 0
KPMS 141910Z 04009KT 10/M01 A3036 RMK A01 T01011008  RH  047%=      5-min Rain = 0
KPMS 141915Z 05006KT 10/M01 A3036 RMK A01 T01031009  RH  046%=      5-min Rain = 0
KPMS 141920Z 04009KT 11/M01 A3036 RMK A01 T01051008  RH  046%=      5-min Rain = 0
KPMS 141925Z 03007KT 10/M01 A3036 RMK A01 T01021009  RH  047%=      5-min Rain = 0
KPMS 141930Z 03009G14KT 11/M01 A3036 RMK A01 T01061008  RH  046%=      5-min Rain = 0
KPMS 141935Z 04008G13KT 11/M01 A3036 RMK A01 T01051008  RH  046%=      5-min Rain = 0
KPMS 141940Z 01008KT 11/M01 A3036 RMK A01 T01051008  RH  046%=      5-min Rain = 0
KPMS 141945Z 03007KT 10/M01 A3035 RMK A01 T01041008  RH  046%=      5-min Rain = 0
KPMS 141950Z 02008KT 11/M01 A3035 RMK A01 T01071006  RH  046%=      5-min Rain = 0
KPMS 141955Z 01007G13KT 11/M01 A3035 RMK A01 T01071008  RH  045%=      5-min Rain = 0
KPMS 142000Z 04007KT 11/M01 A3035 RMK A01 T01071008  RH  045%=      5-min Rain = 0
KPMS 142005Z 06006KT 11/M01 A3035 RMK A01 T01081008  RH  045%=      5-min Rain = 0
KPMS 142010Z 04005KT 11/M01 A3035 RMK A01 T01071007  RH  046%=      5-min Rain = 0
KPMS 142015Z 01005KT 11/M01 A3035 RMK A01 T01071009  RH  045%=      5-min Rain = 0
KPMS 142020Z 03007KT 11/M01 A3035 RMK A01 T01081009  RH  045%=      5-min Rain = 0
KPMS 142025Z 03005KT 11/M01 A3035 RMK A01 T01101008  RH  044%=      5-min Rain = 0
KPMS 142030Z 00007KT 11/M01 A3035 RMK A01 T01071009  RH  045%=      5-min Rain = 0
KPMS 142035Z 01008KT 11/M01 A3034 RMK A01 T01081010  RH  044%=      5-min Rain = 0
KPMS 142040Z 04005KT 11/M01 A3035 RMK A01 T01071010  RH  045%=      5-min Rain = 0
KPMS 142045Z 03005KT 11/M01 A3034 RMK A01 T01091009  RH  044%=      5-min Rain = 0
KPMS 142050Z 03005KT 11/M01 A3034 RMK A01 T01101010  RH  044%=      5-min Rain = 0
KPMS 142055Z 06006KT 11/M01 A3034 RMK A01 T01121012  RH  043%=      5-min Rain = 0
KPMS 142100Z 03006KT 11/M01 A3034 RMK A01 T01131013  RH  042%=      5-min Rain = 0
KPMS 142105Z 03004KT 11/M01 A3034 RMK A01 T01121013  RH  042%=      5-min Rain = 0
KPMS 142110Z 01007KT 11/M01 A3034 RMK A01 T01141014  RH  041%=      5-min Rain = 0
KPMS 142115Z 03006G11KT 11/M01 A3034 RMK A01 T01131014  RH  042%=      5-min Rain = 0
KPMS 142120Z 03005KT 11/M01 A3034 RMK A01 T01131013  RH  042%=      5-min Rain = 0
KPMS 142125Z 02005KT 11/M02 A3034 RMK A01 T01111015  RH  042%=      5-min Rain = 0
KPMS 142130Z 36004KT 11/M01 A3034 RMK A01 T01141014  RH  041%=      5-min Rain = 0
KPMS 142135Z 03003KT 11/M02 A3034 RMK A01 T01141015  RH  041%=      5-min Rain = 0
KPMS 142140Z 01006KT 11/M02 A3034 RMK A01 T01141016  RH  041%=      5-min Rain = 0
KPMS 142145Z 03006KT 11/M02 A3034 RMK A01 T01131017  RH  041%=      5-min Rain = 0
KPMS 142150Z 03006G11KT 11/M02 A3034 RMK A01 T01141016  RH  041%=      5-min Rain = 0
KPMS 142155Z 04004KT 11/M02 A3034 RMK A01 T01121017  RH  041%=      5-min Rain = 0
KPMS 142200Z 06003KT 11/M02 A3034 RMK A01 T01111017  RH  041%=      5-min Rain = 0
KPMS 142205Z 10002KT 11/M02 A3035 RMK A01 T01141016  RH  041%=      5-min Rain = 0
KPMS 142210Z 06004KT 11/M02 A3034 RMK A01 T01131016  RH  041%=      5-min Rain = 0
KPMS 142215Z 05004KT 11/M02 A3034 RMK A01 T01131015  RH  041%=      5-min Rain = 0
KPMS 142220Z 01003KT 11/M02 A3034 RMK A01 T01111016  RH  041%=      5-min Rain = 0
KPMS 142225Z 02003KT 11/M02 A3034 RMK A01 T01111016  RH  042%=      5-min Rain = 0
KPMS 142230Z 01002KT 11/M02 A3034 RMK A01 T01121016  RH  041%=      5-min Rain = 0
KPMS 142235Z 05001KT 11/M02 A3034 RMK A01 T01111017  RH  041%=      5-min Rain = 0
KPMS 142240Z 10002KT 11/M02 A3035 RMK A01 T01111015  RH  042%=      5-min Rain = 0
KPMS 142245Z 11002KT 11/M02 A3035 RMK A01 T01111015  RH  042%=      5-min Rain = 0
KPMS 142250Z 10003KT 11/M02 A3035 RMK A01 T01091017  RH  042%=      5-min Rain = 0
KPMS 142255Z 11002KT 11/M02 A3035 RMK A01 T01071016  RH  043%=      5-min Rain = 0
KPMS 142300Z 10002KT 11/M02 A3035 RMK A01 T01061016  RH  043%=      5-min Rain = 0
KPMS 142305Z 08002KT 11/M02 A3035 RMK A01 T01051016  RH  043%=      5-min Rain = 0
KPMS 142310Z 06003KT 10/M02 A3034 RMK A01 T01011018  RH  044%=      5-min Rain = 0
KPMS 142315Z 05003KT 10/M02 A3035 RMK A01 T00971018  RH  045%=      5-min Rain = 0
KPMS 142320Z 05003KT 10/M02 A3035 RMK A01 T00961018  RH  045%=      5-min Rain = 0
KPMS 142325Z 06003KT 09/M02 A3035 RMK A01 T00931018  RH  046%=      5-min Rain = 0
KPMS 142330Z 07001KT 09/M02 A3035 RMK A01 T00921016  RH  047%=      5-min Rain = 0
KPMS 142335Z 08001KT 09/M02 A3035 RMK A01 T00901016  RH  048%=      5-min Rain = 0
KPMS 142340Z 08002KT 09/M02 A3035 RMK A01 T00881016  RH  048%=      5-min Rain = 0
KPMS 142345Z 09004KT 08/M02 A3035 RMK A01 T00811019  RH  050%=      5-min Rain = 0
KPMS 142350Z 10004KT 07/M02 A3035 RMK A01 T00741018  RH  052%=      5-min Rain = 0
KPMS 142355Z 10004KT 07/M02 A3035 RMK A01 T00731019  RH  053%=      5-min Rain = 0
KPMS 150000Z 11003KT 07/M01 A3035 RMK A01 T00711014  RH  055%=      5-min Rain = 0
KPMS 150005Z 14002KT 07/M02 A3036 RMK A01 T00681015  RH  056%=      5-min Rain = 0
KPMS 150010Z 13002KT 07/M01 A3036 RMK A01 T00671014  RH  057%=      5-min Rain = 0
KPMS 150015Z 14003KT 07/M01 A3036 RMK A01 T00661013  RH  057%=      5-min Rain = 0
KPMS 150020Z 14002KT 07/M02 A3036 RMK A01 T00661017  RH  056%=      5-min Rain = 0
KPMS 150025Z 15003KT 07/M02 A3036 RMK A01 T00651019  RH  055%=      5-min Rain = 0
KPMS 150030Z 14003KT 06/M02 A3036 RMK A01 T00641021  RH  055%=      5-min Rain = 0
KPMS 150035Z 14003KT 06/M02 A3036 RMK A01 T00611021  RH  056%=      5-min Rain = 0
KPMS 150040Z 14003KT 06/M02 A3037 RMK A01 T00611021  RH  056%=      5-min Rain = 0
KPMS 150045Z 14004KT 06/M02 A3037 RMK A01 T00591019  RH  058%=      5-min Rain = 0
KPMS 150050Z 13004KT 05/M00 A3037 RMK A01 T00541004  RH  067%=      5-min Rain = 0
KPMS 150055Z 13003KT 05/M01 A3037 RMK A01 T00451013  RH  067%=      5-min Rain = 0
KPMS 150100Z 13002KT 04/M02 A3037 RMK A01 T00421018  RH  066%=      5-min Rain = 0
KPMS 150105Z 14003KT 04/M02 A3038 RMK A01 T00411021  RH  064%=      5-min Rain = 0
KPMS 150110Z 16003KT 04/M02 A3038 RMK A01 T00381022  RH  065%=      5-min Rain = 0
KPMS 150115Z 17003KT 04/M02 A3038 RMK A01 T00381024  RH  064%=      5-min Rain = 0
KPMS 150120Z 18003KT 04/M02 A3038 RMK A01 T00441022  RH  062%=      5-min Rain = 0
KPMS 150125Z 17003KT 05/M02 A3039 RMK A01 T00461022  RH  062%=      5-min Rain = 0
KPMS 150130Z 16004KT 04/M02 A3039 RMK A01 T00431022  RH  063%=      5-min Rain = 0
KPMS 150135Z 16004KT 04/M02 A3039 RMK A01 T00421024  RH  063%=      5-min Rain = 0
KPMS 150140Z 16004KT 04/M02 A3039 RMK A01 T00441023  RH  062%=      5-min Rain = 0
KPMS 150145Z 16004KT 04/M03 A3039 RMK A01 T00441025  RH  062%=      5-min Rain = 0
KPMS 150150Z 17004KT 04/M02 A3039 RMK A01 T00401023  RH  064%=      5-min Rain = 0
KPMS 150155Z 18002KT 03/M02 A3039 RMK A01 T00331019  RH  069%=      5-min Rain = 0
KPMS 150200Z 18003KT 03/M02 A3039 RMK A01 T00301019  RH  071%=      5-min Rain = 0
KPMS 150205Z 18003KT 03/M02 A3039 RMK A01 T00291022  RH  070%=      5-min Rain = 0
KPMS 150210Z 18003KT 02/M02 A3039 RMK A01 T00231021  RH  073%=      5-min Rain = 0
KPMS 150215Z 17004KT 02/M02 A3039 RMK A01 T00221020  RH  075%=      5-min Rain = 0
KPMS 150220Z 16005KT 03/M02 A3039 RMK A01 T00261022  RH  071%=      5-min Rain = 0
KPMS 150225Z 16005KT 02/M02 A3039 RMK A01 T00231023  RH  072%=      5-min Rain = 0
KPMS 150230Z 16006KT 03/M02 A3039 RMK A01 T00261021  RH  072%=      5-min Rain = 0
KPMS 150235Z 17005KT 02/M03 A3039 RMK A01 T00211028  RH  071%=      5-min Rain = 0
KPMS 150240Z 17005KT 02/M02 A3039 RMK A01 T00201022  RH  074%=      5-min Rain = 0
KPMS 150245Z 18005KT 02/M03 A3039 RMK A01 T00221025  RH  071%=      5-min Rain = 0
KPMS 150250Z 18004KT 02/M02 A3039 RMK A01 T00241024  RH  071%=      5-min Rain = 0
KPMS 150255Z 19004KT 02/M03 A3039 RMK A01 T00201028  RH  071%=      5-min Rain = 0
KPMS 150300Z 18005KT 02/M03 A304 RMK A01 T00171026  RH  074%=      5-min Rain = 0
KPMS 150305Z 18005KT 02/M03 A304 RMK A01 T00201025  RH  072%=      5-min Rain = 0
KPMS 150310Z 18005KT 02/M02 A3039 RMK A01 T00231024  RH  072%=      5-min Rain = 0
KPMS 150315Z 18005KT 02/M02 A3039 RMK A01 T00231024  RH  072%=      5-min Rain = 0
KPMS 150320Z 18005KT 02/M02 A304 RMK A01 T00201024  RH  073%=      5-min Rain = 0
KPMS 150325Z 18006KT 02/M02 A304 RMK A01 T00241024  RH  071%=      5-min Rain = 0
KPMS 150330Z 18006KT 03/M02 A304 RMK A01 T00291021  RH  070%=      5-min Rain = 0
KPMS 150335Z 18006KT 03/M02 A304 RMK A01 T00311020  RH  070%=      5-min Rain = 0
KPMS 150340Z 18006KT 04/M02 A3039 RMK A01 T00371019  RH  068%=      5-min Rain = 0
KPMS 150345Z 18007KT 04/M02 A3039 RMK A01 T00371020  RH  067%=      5-min Rain = 0
KPMS 150350Z 18007KT 03/M02 A3039 RMK A01 T00341021  RH  068%=      5-min Rain = 0
KPMS 150355Z 18006KT 03/M02 A3039 RMK A01 T00341021  RH  068%=      5-min Rain = 0
KPMS 150400Z 18007KT 03/M02 A304 RMK A01 T00341021  RH  068%=      5-min Rain = 0
KPMS 150405Z 18007KT 03/M02 A304 RMK A01 T00341020  RH  068%=      5-min Rain = 0
KPMS 150410Z 18007KT 04/M02 A3039 RMK A01 T00351020  RH  068%=      5-min Rain = 0
KPMS 150415Z 18007KT 04/M02 A3039 RMK A01 T00361021  RH  067%=      5-min Rain = 0
KPMS 150420Z 18007KT 04/M02 A304 RMK A01 T00361021  RH  067%=      5-min Rain = 0
KPMS 150425Z 18007KT 04/M02 A3039 RMK A01 T00351021  RH  067%=      5-min Rain = 0
KPMS 150430Z 17006KT 03/M02 A3039 RMK A01 T00271024  RH  070%=      5-min Rain = 0
KPMS 150435Z 18006KT 02/M03 A3039 RMK A01 T00151028  RH  073%=      5-min Rain = 0
KPMS 150440Z 18006KT 02/M03 A3039 RMK A01 T00191026  RH  073%=      5-min Rain = 0
KPMS 150445Z 18006KT 03/M02 A304 RMK A01 T00251024  RH  070%=      5-min Rain = 0
KPMS 150450Z 18007KT 03/M02 A304 RMK A01 T00281024  RH  069%=      5-min Rain = 0
KPMS 150455Z 19007KT 03/M02 A304 RMK A01 T00281023  RH  069%=      5-min Rain = 0
KPMS 150500Z 19006KT 03/M02 A304 RMK A01 T00281024  RH  069%=      5-min Rain = 0
KPMS 150505Z 20006KT 02/M03 A304 RMK A01 T00221027  RH  070%=      5-min Rain = 0
KPMS 150510Z 20007KT 02/M03 A304 RMK A01 T00191027  RH  072%=      5-min Rain = 0
KPMS 150515Z 20007KT 02/M03 A304 RMK A01 T00191027  RH  072%=      5-min Rain = 0
KPMS 150520Z 20006KT 02/M03 A304 RMK A01 T00191027  RH  072%=      5-min Rain = 0
KPMS 150525Z 20006KT 02/M03 A304 RMK A01 T00201027  RH  072%=      5-min Rain = 0
KPMS 150530Z 20006KT 02/M03 A304 RMK A01 T00181026  RH  073%=      5-min Rain = 0
KPMS 150535Z 20006KT 02/M03 A304 RMK A01 T00181026  RH  073%=      5-min Rain = 0
KPMS 150540Z 21007KT 02/M03 A304 RMK A01 T00181026  RH  073%=      5-min Rain = 0
KPMS 150545Z 21006KT 02/M03 A304 RMK A01 T00161027  RH  074%=      5-min Rain = 0
KPMS 150550Z 20007KT 01/M03 A304 RMK A01 T00141028  RH  074%=      5-min Rain = 0
KPMS 150555Z 20007KT 01/M03 A304 RMK A01 T00111029  RH  075%=      5-min Rain = 0

Page generated in 0.0089 seconds.